Terminal Aerodrome Forecast
Issued by NWS Cleveland, OH

Home | Current Version | Previous Version | Graphics & Text | Print | Product List | Glossary Off
Versions: 1 2 3 4 5 6 7 8 9 10 11 12 13 14

000
FTUS41 KCLE 300359 AAA
TAFERI
TAF AMD
KERI 300359Z 3004/3024 15005KT P6SM VCSH BKN070 OVC150
      TEMPO 3004/3007 VRB04KT 5SM -SHRA BR BKN060 OVC080
     FM301500 26007KT P6SM VCSH BKN070=

USA.gov is the U.S. government's official web portal to all federal, state and local government web resources and services.